createdAt,value
2022-08-16T00:00:20.408Z,76.35
2022-08-16T00:01:14.245Z,76.30
2022-08-16T00:02:13.514Z,76.24
2022-08-16T00:03:14.905Z,76.18
2022-08-16T00:04:13.492Z,76.30
2022-08-16T00:05:13.194Z,76.43
2022-08-16T00:06:13.190Z,76.28
2022-08-16T00:07:13.342Z,76.19
2022-08-16T00:08:30.615Z,76.12
2022-08-16T00:09:14.246Z,76.12
2022-08-16T00:10:20.668Z,76.16
2022-08-16T00:11:15.366Z,76.23
2022-08-16T00:12:17.946Z,76.24
2022-08-16T00:13:14.281Z,76.06
2022-08-16T00:14:13.102Z,76.08
2022-08-16T00:15:13.372Z,76.09
2022-08-16T00:17:01.068Z,76.14
2022-08-16T00:17:18.858Z,76.26
2022-08-16T00:18:14.071Z,76.20
2022-08-16T00:19:13.729Z,76.32
2022-08-16T00:20:13.071Z,76.32
2022-08-16T00:21:13.023Z,76.04
2022-08-16T00:22:15.457Z,75.92
2022-08-16T00:23:13.011Z,75.95
2022-08-16T00:24:13.199Z,75.93
2022-08-16T00:25:13.982Z,75.85
2022-08-16T00:26:33.211Z,75.95
2022-08-16T00:27:13.971Z,75.84
2022-08-16T00:28:12.966Z,75.95
2022-08-16T00:29:13.001Z,76.08
2022-08-16T00:30:19.663Z,75.98
2022-08-16T00:31:13.932Z,75.99
2022-08-16T00:32:12.917Z,76.01
2022-08-16T00:33:13.939Z,76.18
2022-08-16T00:34:18.427Z,76.22
2022-08-16T00:35:15.058Z,76.17
2022-08-16T00:36:12.922Z,76.46
2022-08-16T00:37:12.868Z,76.58
2022-08-16T00:38:40.619Z,76.61
2022-08-16T00:39:15.559Z,76.73
2022-08-16T00:40:33.702Z,76.83
2022-08-16T00:41:14.064Z,76.78
2022-08-16T00:42:12.821Z,76.72
2022-08-16T00:43:16.906Z,76.65
2022-08-16T00:44:13.793Z,76.75
2022-08-16T00:45:12.773Z,76.83
2022-08-16T00:46:22.298Z,76.94
2022-08-16T00:47:13.773Z,77.02
2022-08-16T00:48:30.406Z,77.06
2022-08-16T00:49:17.531Z,77.00
2022-08-16T00:50:13.723Z,77.04
2022-08-16T00:51:16.076Z,77.08
2022-08-16T00:52:30.311Z,77.00
2022-08-16T00:53:13.694Z,76.92
2022-08-16T00:54:12.673Z,76.91
2022-08-16T00:55:12.664Z,77.02
2022-08-16T00:56:55.889Z,77.08
2022-08-16T00:57:13.644Z,77.09
2022-08-16T00:58:13.223Z,77.01
2022-08-16T00:59:12.694Z,77.02
2022-08-16T01:00:12.606Z,77.06
2022-08-16T01:01:13.794Z,77.08
2022-08-16T01:02:31.378Z,77.16
2022-08-16T01:03:13.630Z,77.14
2022-08-16T01:04:30.193Z,77.12
2022-08-16T01:05:13.554Z,77.18
2022-08-16T01:06:32.739Z,77.00
2022-08-16T01:07:17.794Z,76.90
2022-08-16T01:08:35.109Z,76.79
2022-08-16T01:09:13.535Z,76.75
2022-08-16T01:10:16.083Z,76.81
2022-08-16T01:11:12.494Z,76.59
2022-08-16T01:12:26.548Z,76.53
2022-08-16T01:13:15.019Z,76.63
2022-08-16T01:14:12.464Z,76.62
2022-08-16T01:15:12.455Z,76.32
2022-08-16T01:16:12.436Z,76.34
2022-08-16T01:17:13.625Z,76.40
2022-08-16T01:18:38.870Z,76.49
2022-08-16T01:19:13.518Z,76.48
2022-08-16T01:20:23.728Z,76.66
2022-08-16T01:21:13.400Z,76.48
2022-08-16T01:22:48.559Z,76.49
2022-08-16T01:23:13.366Z,76.56
2022-08-16T01:24:51.753Z,76.58
2022-08-16T01:25:13.348Z,76.65
2022-08-16T01:26:34.757Z,76.67
2022-08-16T01:27:15.208Z,76.49
2022-08-16T01:28:20.288Z,76.54
2022-08-16T01:29:13.306Z,76.55
2022-08-16T01:30:18.076Z,76.66
2022-08-16T01:31:13.276Z,76.62
2022-08-16T01:32:12.272Z,76.27
2022-08-16T01:33:14.698Z,76.06
2022-08-16T01:34:24.970Z,75.83
2022-08-16T01:35:16.901Z,75.45
2022-08-16T01:36:13.014Z,74.97
2022-08-16T01:37:12.232Z,74.77
2022-08-16T01:38:12.376Z,74.66
2022-08-16T01:39:13.972Z,74.34
2022-08-16T01:40:12.296Z,74.19
2022-08-16T01:41:12.184Z,74.25
2022-08-16T01:42:13.316Z,74.17
2022-08-16T01:43:12.147Z,74.08
2022-08-16T01:44:12.167Z,74.13
2022-08-16T01:45:13.556Z,73.90
2022-08-16T01:46:37.457Z,73.76
2022-08-16T01:47:13.201Z,73.75
2022-08-16T01:48:19.183Z,73.88
2022-08-16T01:49:13.114Z,73.86
2022-08-16T01:50:42.305Z,73.86
2022-08-16T01:51:17.047Z,73.91
2022-08-16T01:52:29.208Z,74.02
2022-08-16T01:53:13.046Z,74.05
2022-08-16T01:54:13.257Z,74.03
2022-08-16T01:55:12.462Z,74.09
2022-08-16T01:56:23.189Z,74.09
2022-08-16T01:57:13.012Z,73.96
2022-08-16T01:58:12.298Z,74.11
2022-08-16T01:59:15.769Z,74.20
2022-08-16T02:00:19.271Z,74.04
2022-08-16T02:01:12.995Z,74.05
2022-08-16T02:02:26.866Z,74.10
2022-08-16T02:03:12.931Z,74.08
2022-08-16T02:04:11.923Z,73.91
2022-08-16T02:05:11.915Z,73.90
2022-08-16T02:06:11.898Z,73.93
2022-08-16T02:07:12.037Z,73.92
2022-08-16T02:08:33.036Z,73.85
2022-08-16T02:09:12.868Z,73.94
2022-08-16T02:10:11.861Z,74.03
2022-08-16T02:11:11.839Z,74.04
2022-08-16T02:12:50.340Z,74.00
2022-08-16T02:13:12.824Z,74.22
2022-08-16T02:14:18.023Z,74.28
2022-08-16T02:15:12.836Z,74.40
2022-08-16T02:16:18.196Z,74.42
2022-08-16T02:17:12.951Z,74.51
2022-08-16T02:18:12.666Z,74.57
2022-08-16T02:19:15.807Z,74.58
2022-08-16T02:20:12.025Z,74.47
2022-08-16T02:21:11.740Z,74.56
2022-08-16T02:22:33.647Z,74.47
2022-08-16T02:23:12.716Z,74.52
2022-08-16T02:24:31.351Z,74.55
2022-08-16T02:25:14.638Z,74.55
2022-08-16T02:26:11.684Z,74.48
2022-08-16T02:27:12.879Z,74.10
2022-08-16T02:28:11.661Z,73.77
2022-08-16T02:29:13.007Z,73.61
2022-08-16T02:30:11.631Z,73.23
2022-08-16T02:31:12.632Z,73.19
2022-08-16T02:32:50.480Z,72.89
2022-08-16T02:33:12.761Z,72.76
2022-08-16T02:34:12.085Z,72.63
2022-08-16T02:35:11.615Z,72.62
2022-08-16T02:36:14.176Z,72.42
2022-08-16T02:37:11.560Z,72.29
2022-08-16T02:38:11.720Z,72.42
2022-08-16T02:39:11.540Z,72.37
2022-08-16T02:40:11.544Z,72.34
2022-08-16T02:41:12.285Z,72.43
2022-08-16T02:42:11.523Z,72.48
2022-08-16T02:43:11.499Z,72.39
2022-08-16T02:44:13.886Z,72.38
2022-08-16T02:45:11.476Z,72.33
2022-08-16T02:46:11.464Z,72.24
2022-08-16T02:47:11.451Z,72.18
2022-08-16T02:48:29.848Z,72.30
2022-08-16T02:49:12.613Z,72.25
2022-08-16T02:50:55.402Z,72.31
2022-08-16T02:51:12.418Z,72.26
2022-08-16T02:52:11.395Z,72.21
2022-08-16T02:53:12.391Z,72.19
2022-08-16T02:54:11.383Z,72.22
2022-08-16T02:55:11.583Z,72.30
2022-08-16T02:56:11.370Z,72.16
2022-08-16T02:57:11.360Z,72.06
2022-08-16T02:58:11.383Z,72.07
2022-08-16T02:59:14.486Z,72.09
2022-08-16T03:00:33.754Z,72.09
2022-08-16T03:01:17.021Z,72.08
2022-08-16T03:02:12.353Z,72.07
2022-08-16T03:03:11.293Z,72.06
2022-08-16T03:04:41.084Z,72.13
2022-08-16T03:05:12.262Z,72.20
2022-08-16T03:06:39.112Z,72.21
2022-08-16T03:07:12.464Z,72.13
2022-08-16T03:08:52.259Z,72.27
2022-08-16T03:09:14.908Z,72.33
2022-08-16T03:10:11.242Z,72.34
2022-08-16T03:11:16.766Z,72.41
2022-08-16T03:12:16.486Z,72.35
2022-08-16T03:13:12.881Z,72.30
2022-08-16T03:14:11.587Z,72.28
2022-08-16T03:15:11.153Z,72.35
2022-08-16T03:16:32.861Z,72.41
2022-08-16T03:17:12.129Z,72.45
2022-08-16T03:18:18.593Z,72.46
2022-08-16T03:19:12.115Z,72.48
2022-08-16T03:20:11.861Z,72.44
2022-08-16T03:21:11.095Z,72.41
2022-08-16T03:22:11.080Z,72.32
2022-08-16T03:23:12.222Z,72.32
2022-08-16T03:24:29.107Z,72.40
2022-08-16T03:25:12.094Z,72.43
2022-08-16T03:26:11.085Z,72.59
2022-08-16T03:27:11.344Z,72.61
2022-08-16T03:28:11.046Z,72.58
2022-08-16T03:29:11.015Z,72.60
2022-08-16T03:30:16.140Z,72.75
2022-08-16T03:31:11.988Z,72.74
2022-08-16T03:32:10.985Z,72.83
2022-08-16T03:33:11.128Z,73.01
2022-08-16T03:34:10.945Z,72.98
2022-08-16T03:35:10.938Z,73.03
2022-08-16T03:36:30.077Z,72.93
2022-08-16T03:37:11.924Z,72.95
2022-08-16T03:38:32.731Z,73.11
2022-08-16T03:39:14.839Z,73.20
2022-08-16T03:40:10.920Z,73.21
2022-08-16T03:41:24.364Z,73.42
2022-08-16T03:42:11.872Z,73.53
2022-08-16T03:43:20.187Z,73.43
2022-08-16T03:44:11.900Z,73.54
2022-08-16T03:45:11.996Z,73.47
2022-08-16T03:46:10.821Z,73.49
2022-08-16T03:47:10.820Z,73.54
2022-08-16T03:48:10.810Z,73.62
2022-08-16T03:49:10.820Z,73.72
2022-08-16T03:50:25.341Z,73.83
2022-08-16T03:51:12.116Z,73.80
2022-08-16T03:52:10.766Z,73.97
2022-08-16T03:53:10.751Z,73.53
2022-08-16T03:54:12.206Z,73.29
2022-08-16T03:55:14.811Z,73.26
2022-08-16T03:56:19.695Z,73.04
2022-08-16T03:57:11.706Z,72.85
2022-08-16T03:58:10.710Z,72.88
2022-08-16T03:59:10.685Z,72.85
2022-08-16T04:00:10.673Z,72.70
2022-08-16T04:01:11.895Z,72.55
2022-08-16T04:02:22.705Z,72.43
2022-08-16T04:03:11.643Z,72.50
2022-08-16T04:04:10.628Z,72.63
2022-08-16T04:05:11.639Z,72.67
2022-08-16T04:06:10.874Z,72.67
2022-08-16T04:07:10.603Z,72.86
2022-08-16T04:08:22.915Z,72.82
2022-08-16T04:09:12.552Z,72.88
2022-08-16T04:10:35.624Z,72.91
2022-08-16T04:11:11.559Z,73.04
2022-08-16T04:12:53.936Z,72.97
2022-08-16T04:13:20.725Z,73.01
2022-08-16T04:14:33.418Z,73.01
2022-08-16T04:15:11.528Z,73.08
2022-08-16T04:16:27.401Z,73.12
2022-08-16T04:17:11.479Z,73.19
2022-08-16T04:18:10.629Z,73.23
2022-08-16T04:19:10.469Z,73.31
2022-08-16T04:20:23.552Z,73.46
2022-08-16T04:21:11.460Z,73.44
2022-08-16T04:22:10.516Z,73.27
2022-08-16T04:23:10.591Z,72.93
2022-08-16T04:24:10.424Z,72.52
2022-08-16T04:25:10.401Z,72.08
2022-08-16T04:26:16.932Z,72.13
2022-08-16T04:27:11.385Z,72.13
2022-08-16T04:28:51.688Z,72.18
2022-08-16T04:29:21.707Z,72.21
2022-08-16T04:30:11.560Z,72.28
2022-08-16T04:31:11.341Z,72.23
2022-08-16T04:32:10.353Z,72.21
2022-08-16T04:33:10.318Z,72.14
2022-08-16T04:34:10.311Z,71.98
2022-08-16T04:35:15.362Z,71.92
2022-08-16T04:36:11.461Z,71.64
2022-08-16T04:37:11.273Z,71.58
2022-08-16T04:38:11.110Z,71.69
2022-08-16T04:39:11.259Z,71.64
2022-08-16T04:40:11.290Z,71.69
2022-08-16T04:41:11.255Z,71.68
2022-08-16T04:42:11.364Z,71.48
2022-08-16T04:43:10.307Z,71.32
2022-08-16T04:44:33.005Z,71.30
2022-08-16T04:45:11.188Z,71.11
2022-08-16T04:46:19.881Z,71.13
2022-08-16T04:47:21.486Z,71.20
2022-08-16T04:48:11.173Z,71.35
2022-08-16T04:49:11.155Z,71.73
2022-08-16T04:50:10.203Z,71.90
2022-08-16T04:51:12.088Z,72.10
2022-08-16T04:52:33.232Z,72.21
2022-08-16T04:53:11.266Z,72.38
2022-08-16T04:54:10.109Z,72.49
2022-08-16T04:55:11.775Z,72.57
2022-08-16T04:56:11.276Z,72.71
2022-08-16T04:57:10.083Z,72.59
2022-08-16T04:58:43.670Z,72.61
2022-08-16T04:59:11.203Z,72.58
2022-08-16T05:00:30.464Z,72.37
2022-08-16T05:01:11.183Z,72.01
2022-08-16T05:02:42.044Z,71.97
2022-08-16T05:03:11.066Z,71.67
2022-08-16T05:04:19.515Z,71.42
2022-08-16T05:05:17.288Z,71.08
2022-08-16T05:06:10.966Z,71.11
2022-08-16T05:07:14.571Z,70.98
2022-08-16T05:08:29.400Z,70.85
2022-08-16T05:09:10.930Z,70.79
2022-08-16T05:10:20.071Z,70.72
2022-08-16T05:11:11.057Z,70.96
2022-08-16T05:12:10.860Z,71.00
2022-08-16T05:13:09.892Z,71.17
2022-08-16T05:14:11.111Z,71.46
2022-08-16T05:15:10.904Z,71.55
2022-08-16T05:16:09.873Z,71.50
2022-08-16T05:17:09.844Z,71.42
2022-08-16T05:18:09.836Z,71.45
2022-08-16T05:19:11.635Z,71.71
2022-08-16T05:20:38.694Z,71.55
2022-08-16T05:21:11.417Z,71.58
2022-08-16T05:22:18.264Z,71.68
2022-08-16T05:23:11.406Z,71.77
2022-08-16T05:24:09.769Z,71.87
2022-08-16T05:25:09.907Z,71.97
2022-08-16T05:26:19.932Z,71.91
2022-08-16T05:27:11.349Z,71.77
2022-08-16T05:28:09.733Z,72.00
2022-08-16T05:29:11.138Z,71.96
2022-08-16T05:30:35.506Z,71.98
2022-08-16T05:31:10.697Z,71.92
2022-08-16T05:32:32.787Z,71.74
2022-08-16T05:33:16.536Z,71.66
2022-08-16T05:34:19.717Z,71.57
2022-08-16T05:35:10.878Z,71.31
2022-08-16T05:36:14.269Z,71.04
2022-08-16T05:37:09.627Z,70.96
2022-08-16T05:38:32.808Z,70.76
2022-08-16T05:39:10.608Z,70.66
2022-08-16T05:40:09.618Z,70.68
2022-08-16T05:41:09.781Z,70.59
2022-08-16T05:42:09.575Z,70.49
2022-08-16T05:43:11.978Z,70.53
2022-08-16T05:44:23.509Z,70.51
2022-08-16T05:45:10.530Z,70.45
2022-08-16T05:46:29.798Z,70.18
2022-08-16T05:47:10.679Z,70.18
2022-08-16T05:48:09.508Z,70.03
2022-08-16T05:49:09.843Z,70.31
2022-08-16T05:50:09.509Z,69.99
2022-08-16T05:51:10.479Z,69.91
2022-08-16T05:52:11.146Z,70.10
2022-08-16T05:53:09.908Z,69.98
2022-08-16T05:54:09.752Z,70.02
2022-08-16T05:55:09.441Z,70.06
2022-08-16T05:56:09.490Z,70.00
2022-08-16T05:57:09.422Z,69.91
2022-08-16T05:58:09.407Z,69.70
2022-08-16T05:59:10.827Z,70.00
2022-08-16T06:00:09.835Z,69.58
2022-08-16T06:01:09.414Z,69.46
2022-08-16T06:02:09.383Z,69.30
2022-08-16T06:03:12.943Z,69.34
2022-08-16T06:04:13.477Z,69.24
2022-08-16T06:05:10.793Z,69.16
2022-08-16T06:06:09.322Z,69.10
2022-08-16T06:07:24.896Z,69.03
2022-08-16T06:08:10.293Z,69.08
2022-08-16T06:09:10.290Z,69.25
2022-08-16T06:10:09.713Z,69.56
2022-08-16T06:11:10.124Z,69.35
2022-08-16T06:12:09.256Z,69.08
2022-08-16T06:13:09.241Z,68.82
2022-08-16T06:14:09.241Z,68.79
2022-08-16T06:15:09.953Z,68.66
2022-08-16T06:16:09.220Z,68.41
2022-08-16T06:17:10.423Z,68.55
2022-08-16T06:18:09.189Z,68.44
2022-08-16T06:19:09.182Z,68.25
2022-08-16T06:20:09.171Z,68.48
2022-08-16T06:21:09.150Z,68.31
2022-08-16T06:22:09.172Z,68.25
2022-08-16T06:23:17.005Z,68.09
2022-08-16T06:24:53.752Z,68.03
2022-08-16T06:25:10.126Z,66.88
2022-08-16T06:26:09.117Z,67.16
2022-08-16T06:27:09.090Z,67.32
2022-08-16T06:28:09.760Z,67.09
2022-08-16T06:29:09.071Z,67.10
2022-08-16T06:30:09.065Z,66.79
2022-08-16T06:31:11.900Z,65.87
2022-08-16T06:32:09.045Z,65.69
2022-08-16T06:33:12.248Z,66.42
2022-08-16T06:34:55.703Z,66.07
2022-08-16T06:35:10.012Z,66.43
2022-08-16T06:36:09.026Z,65.53
2022-08-16T06:37:08.973Z,66.09
2022-08-16T06:38:32.898Z,66.05
2022-08-16T06:39:10.332Z,66.06
2022-08-16T06:40:12.747Z,65.13
2022-08-16T06:41:13.695Z,65.80
2022-08-16T06:42:09.927Z,65.73
2022-08-16T06:43:08.912Z,65.02
2022-08-16T06:44:09.086Z,64.83
2022-08-16T06:45:09.898Z,64.47
2022-08-16T06:46:09.868Z,64.55
2022-08-16T06:47:08.878Z,64.42
2022-08-16T06:48:08.872Z,64.07
2022-08-16T06:49:10.802Z,64.41
2022-08-16T06:50:09.016Z,64.12
2022-08-16T06:51:09.852Z,64.11
2022-08-16T06:52:58.119Z,64.57
2022-08-16T06:53:10.141Z,64.01
2022-08-16T06:54:08.806Z,64.23
2022-08-16T06:55:13.134Z,63.67
2022-08-16T06:56:14.661Z,62.90
2022-08-16T06:57:16.483Z,63.19
2022-08-16T06:58:21.669Z,63.07
2022-08-16T06:59:10.264Z,62.88
2022-08-16T07:00:10.059Z,63.00
2022-08-16T07:01:15.021Z,62.64
2022-08-16T07:02:33.411Z,62.34
2022-08-16T07:03:26.934Z,62.52
2022-08-16T07:04:12.030Z,62.92
2022-08-16T07:05:14.857Z,62.88
2022-08-16T07:06:09.678Z,62.64
2022-08-16T07:07:09.895Z,62.41
2022-08-16T07:08:08.660Z,61.80
2022-08-16T07:09:09.722Z,61.75
2022-08-16T07:10:08.999Z,61.94
2022-08-16T07:11:08.989Z,62.30
2022-08-16T07:12:08.621Z,61.70
2022-08-16T07:13:12.126Z,61.16
2022-08-16T07:14:25.004Z,60.94
2022-08-16T07:15:09.793Z,61.00
2022-08-16T07:16:09.574Z,61.16
2022-08-16T07:17:12.771Z,60.77
2022-08-16T07:18:08.558Z,60.83
2022-08-16T07:19:08.541Z,60.55
2022-08-16T07:20:35.031Z,61.13
2022-08-16T07:21:09.753Z,61.06
2022-08-16T07:22:37.083Z,60.53
2022-08-16T07:23:13.348Z,60.20
2022-08-16T07:24:08.491Z,60.08
2022-08-16T07:25:08.487Z,59.85
2022-08-16T07:26:08.467Z,59.59
2022-08-16T07:27:08.775Z,59.45
2022-08-16T07:28:11.853Z,59.29
2022-08-16T07:29:08.437Z,59.95
2022-08-16T07:30:45.055Z,60.24
2022-08-16T07:31:12.960Z,59.53
2022-08-16T07:32:08.412Z,59.69
2022-08-16T07:33:08.567Z,59.44
2022-08-16T07:34:10.241Z,58.93
2022-08-16T07:35:08.347Z,58.74
2022-08-16T07:36:09.717Z,59.17
2022-08-16T07:37:08.336Z,59.15
2022-08-16T07:38:08.328Z,58.25
2022-08-16T07:39:08.493Z,58.57
2022-08-16T07:40:11.301Z,57.95
2022-08-16T07:41:10.107Z,58.16
2022-08-16T07:42:08.298Z,57.17
2022-08-16T07:43:08.267Z,57.07
2022-08-16T07:44:16.382Z,57.23
2022-08-16T07:45:10.183Z,56.64
2022-08-16T07:46:38.630Z,56.76
2022-08-16T07:47:09.218Z,56.75
2022-08-16T07:48:11.585Z,57.48
2022-08-16T07:49:11.268Z,57.44
2022-08-16T07:50:08.369Z,57.09
2022-08-16T07:51:09.335Z,56.04
2022-08-16T07:52:19.063Z,55.55
2022-08-16T07:53:09.182Z,55.21
2022-08-16T07:54:10.008Z,55.44
2022-08-16T07:55:08.138Z,55.21
2022-08-16T07:56:08.280Z,55.43
2022-08-16T07:57:08.111Z,56.17
2022-08-16T07:58:08.118Z,56.34
2022-08-16T07:59:09.099Z,55.64
2022-08-16T08:00:08.085Z,55.78
2022-08-16T08:01:10.834Z,55.31
2022-08-16T08:02:12.134Z,55.36
2022-08-16T08:03:08.060Z,55.34
2022-08-16T08:04:08.049Z,55.21
2022-08-16T08:05:09.030Z,54.57
2022-08-16T08:06:10.386Z,54.43
2022-08-16T08:07:09.030Z,54.59
2022-08-16T08:08:11.856Z,54.25
2022-08-16T08:09:08.990Z,54.38
2022-08-16T08:10:11.078Z,54.02
2022-08-16T08:11:09.098Z,54.94
2022-08-16T08:12:08.131Z,53.97
2022-08-16T08:13:08.964Z,53.77
2022-08-16T08:14:07.948Z,52.79
2022-08-16T08:15:09.793Z,52.80
2022-08-16T08:16:07.910Z,52.94
2022-08-16T08:17:09.054Z,52.58
2022-08-16T08:18:30.329Z,52.75
2022-08-16T08:19:08.872Z,52.44
2022-08-16T08:20:07.862Z,52.93
2022-08-16T08:21:07.866Z,53.06
2022-08-16T08:22:07.841Z,53.26
2022-08-16T08:23:07.983Z,53.44
2022-08-16T08:24:09.429Z,53.53
2022-08-16T08:25:07.803Z,53.30
2022-08-16T08:26:10.714Z,53.35
2022-08-16T08:27:08.792Z,52.89
2022-08-16T08:28:11.101Z,52.46
2022-08-16T08:29:08.641Z,52.04
2022-08-16T08:30:49.355Z,51.15
2022-08-16T08:31:08.741Z,51.52
2022-08-16T08:32:57.426Z,51.92
2022-08-16T08:33:08.994Z,51.45
2022-08-16T08:34:07.967Z,51.33
2022-08-16T08:35:07.694Z,51.45
2022-08-16T08:36:07.696Z,51.66
2022-08-16T08:37:07.695Z,51.78
2022-08-16T08:38:07.669Z,52.04
2022-08-16T08:39:12.913Z,51.86
2022-08-16T08:40:08.859Z,51.83
2022-08-16T08:41:07.696Z,51.41
2022-08-16T08:42:07.622Z,50.81
2022-08-16T08:43:12.430Z,50.36
2022-08-16T08:44:28.426Z,49.75
2022-08-16T08:45:13.757Z,50.49
2022-08-16T08:46:17.848Z,50.25
2022-08-16T08:47:12.083Z,50.38
2022-08-16T08:48:07.568Z,50.43
2022-08-16T08:49:07.719Z,50.15
2022-08-16T08:50:07.552Z,50.28
2022-08-16T08:51:09.030Z,50.12
2022-08-16T08:52:08.037Z,49.85
2022-08-16T08:53:07.505Z,50.14
2022-08-16T08:54:09.504Z,49.36
2022-08-16T08:55:09.334Z,48.92
2022-08-16T08:56:23.529Z,48.79
2022-08-16T08:57:08.626Z,48.78
2022-08-16T08:58:07.459Z,49.25
2022-08-16T08:59:13.629Z,49.38
2022-08-16T09:00:13.525Z,49.42
2022-08-16T09:01:09.472Z,49.78
2022-08-16T09:02:07.481Z,50.03
2022-08-16T09:03:07.854Z,50.06
2022-08-16T09:04:07.469Z,49.89
2022-08-16T09:05:15.258Z,49.80
2022-08-16T09:06:08.359Z,49.98
2022-08-16T09:07:07.358Z,49.96
2022-08-16T09:08:09.094Z,49.45
2022-08-16T09:09:07.332Z,49.76
2022-08-16T09:10:20.729Z,50.34
2022-08-16T09:11:08.321Z,49.83
2022-08-16T09:12:07.306Z,49.72
2022-08-16T09:13:08.087Z,49.53
2022-08-16T09:14:07.538Z,49.49
2022-08-16T09:15:07.266Z,49.42
2022-08-16T09:16:07.269Z,49.43
2022-08-16T09:17:11.743Z,49.12
2022-08-16T09:18:24.998Z,48.88
2022-08-16T09:20:07.219Z,48.77
2022-08-16T09:21:09.446Z,49.41
2022-08-16T09:22:07.198Z,48.65
2022-08-16T09:23:08.187Z,49.21
2022-08-16T09:24:10.114Z,49.16
2022-08-16T09:25:09.949Z,48.90
2022-08-16T09:26:45.001Z,48.14
2022-08-16T09:27:08.138Z,48.93
2022-08-16T09:28:09.317Z,47.74
2022-08-16T09:29:15.222Z,47.59
2022-08-16T09:30:34.611Z,47.51
2022-08-16T09:31:08.094Z,46.80
2022-08-16T09:32:07.646Z,46.92
2022-08-16T09:33:07.627Z,47.12
2022-08-16T09:34:07.060Z,46.14
2022-08-16T09:35:07.045Z,46.51
2022-08-16T09:36:07.207Z,46.56
2022-08-16T09:37:17.688Z,46.44
2022-08-16T09:38:08.417Z,46.90
2022-08-16T09:39:07.002Z,46.47
2022-08-16T09:40:32.648Z,45.86
2022-08-16T09:41:14.671Z,45.71
2022-08-16T09:42:07.974Z,45.92
2022-08-16T09:43:07.011Z,46.22
2022-08-16T09:45:10.780Z,46.74
2022-08-16T09:45:11.908Z,45.83
2022-08-16T09:46:45.306Z,44.83
2022-08-16T09:47:10.195Z,44.00
2022-08-16T09:48:06.912Z,43.97
2022-08-16T09:49:08.568Z,44.01
2022-08-16T09:50:11.975Z,43.59
2022-08-16T09:51:07.871Z,42.51
2022-08-16T09:52:06.870Z,42.10
2022-08-16T09:53:07.012Z,42.43
2022-08-16T09:54:09.582Z,41.92
2022-08-16T09:55:06.823Z,42.57
2022-08-16T09:56:11.367Z,43.08
2022-08-16T09:57:06.810Z,43.63
2022-08-16T09:58:08.012Z,44.05
2022-08-16T09:59:07.789Z,43.31
2022-08-16T10:00:42.605Z,43.45
2022-08-16T10:01:08.565Z,43.46
2022-08-16T10:02:26.621Z,43.52
2022-08-16T10:03:09.122Z,43.64
2022-08-16T10:04:13.051Z,43.71
2022-08-16T10:05:07.785Z,44.28
2022-08-16T10:06:06.711Z,44.65
2022-08-16T10:07:15.051Z,44.69
2022-08-16T10:08:26.069Z,45.56
2022-08-16T10:09:10.624Z,45.51
2022-08-16T10:10:11.197Z,45.40
2022-08-16T10:11:09.454Z,45.05
2022-08-16T10:12:11.704Z,44.51
2022-08-16T10:13:07.646Z,43.72
2022-08-16T10:14:06.625Z,43.58
2022-08-16T10:15:06.807Z,44.07
2022-08-16T10:16:06.659Z,44.07
2022-08-16T10:17:06.595Z,45.26
2022-08-16T10:18:41.253Z,45.10
2022-08-16T10:19:07.921Z,44.71
2022-08-16T10:20:06.554Z,43.72
2022-08-16T10:21:06.724Z,43.61
2022-08-16T10:22:06.547Z,44.49
2022-08-16T10:23:07.161Z,44.05
2022-08-16T10:24:06.516Z,43.61
2022-08-16T10:25:06.507Z,43.76
2022-08-16T10:27:20.626Z,43.85
2022-08-16T10:27:26.489Z,43.76
2022-08-16T10:28:28.193Z,43.61
2022-08-16T10:29:07.475Z,43.59
2022-08-16T10:30:25.040Z,43.55
2022-08-16T10:31:07.437Z,43.53
2022-08-16T10:32:06.653Z,43.42
2022-08-16T10:33:06.423Z,43.78
2022-08-16T10:34:06.407Z,43.56
2022-08-16T10:35:07.415Z,43.23
2022-08-16T10:36:07.627Z,43.40
2022-08-16T10:37:06.380Z,43.87
2022-08-16T10:38:06.717Z,43.39
2022-08-16T10:39:08.594Z,43.48
2022-08-16T10:40:06.403Z,43.12
2022-08-16T10:41:07.446Z,43.44
2022-08-16T10:42:06.317Z,43.54
2022-08-16T10:43:08.256Z,43.38
2022-08-16T10:44:09.372Z,43.20
2022-08-16T10:45:06.294Z,43.02
2022-08-16T10:46:39.322Z,43.11
2022-08-16T10:47:07.280Z,43.29
2022-08-16T10:48:06.257Z,43.66
2022-08-16T10:49:07.251Z,43.75
2022-08-16T10:50:06.410Z,43.93
2022-08-16T10:51:07.228Z,43.69
2022-08-16T10:52:18.102Z,44.10
2022-08-16T10:53:07.499Z,43.12
2022-08-16T10:54:06.188Z,42.51
2022-08-16T10:56:52.217Z,42.78
2022-08-16T10:57:07.163Z,42.62
2022-08-16T10:58:11.409Z,42.73
2022-08-16T11:00:21.332Z,42.98
2022-08-16T11:02:59.535Z,43.46
2022-08-16T11:03:42.116Z,43.92
2022-08-16T11:05:04.772Z,43.70
2022-08-16T11:05:08.278Z,43.83
2022-08-16T11:06:07.528Z,43.50
2022-08-16T11:07:07.926Z,43.30
2022-08-16T11:08:07.051Z,43.30
2022-08-16T11:09:25.532Z,43.90
2022-08-16T11:11:04.926Z,43.16
2022-08-16T11:11:11.672Z,43.09
2022-08-16T11:12:13.904Z,43.12
2022-08-16T11:14:11.269Z,42.64
2022-08-16T11:15:13.596Z,42.74
2022-08-16T11:17:11.011Z,42.51
2022-08-16T11:19:03.589Z,42.84
2022-08-16T11:19:12.190Z,42.40
2022-08-16T11:21:06.911Z,42.18
2022-08-16T11:22:39.085Z,42.20
2022-08-16T11:23:07.052Z,42.50
2022-08-16T11:24:39.722Z,42.03
2022-08-16T11:25:57.907Z,41.40
2022-08-16T11:26:20.627Z,41.73
2022-08-16T11:27:23.434Z,42.11
2022-08-16T11:28:06.835Z,41.37
2022-08-16T11:29:14.229Z,42.87
2022-08-16T11:30:09.143Z,43.43
2022-08-16T11:31:06.802Z,43.44
2022-08-16T11:32:05.782Z,43.14
2022-08-16T11:33:05.778Z,42.57
2022-08-16T11:34:05.775Z,42.46
2022-08-16T11:35:10.407Z,42.40
2022-08-16T11:36:22.496Z,42.27
2022-08-16T11:37:06.732Z,42.41
2022-08-16T11:38:23.499Z,42.39
2022-08-16T11:39:06.724Z,42.39
2022-08-16T11:40:05.811Z,42.13
2022-08-16T11:41:05.859Z,41.96
2022-08-16T11:42:07.673Z,41.50
2022-08-16T11:43:06.670Z,41.32
2022-08-16T11:44:05.656Z,42.48
2022-08-16T11:45:05.644Z,41.04
2022-08-16T11:46:43.327Z,40.50
2022-08-16T11:47:06.965Z,40.56
2022-08-16T11:48:05.622Z,40.60
2022-08-16T11:49:09.881Z,40.33
2022-08-16T11:50:06.610Z,40.90
2022-08-16T11:51:05.625Z,40.85
2022-08-16T11:52:05.573Z,40.83
2022-08-16T11:53:05.736Z,41.00
2022-08-16T11:54:05.559Z,41.24
2022-08-16T11:55:06.585Z,41.16
2022-08-16T11:56:06.264Z,41.41
2022-08-16T11:57:09.326Z,41.75
2022-08-16T11:58:05.505Z,41.97
2022-08-16T11:59:05.817Z,41.39
2022-08-16T12:00:05.491Z,41.20
2022-08-16T12:01:05.476Z,41.30
2022-08-16T12:02:32.230Z,41.50
2022-08-16T12:03:06.456Z,41.49
2022-08-16T12:04:05.498Z,41.59
2022-08-16T12:05:05.602Z,41.66
2022-08-16T12:06:05.435Z,41.60
2022-08-16T12:07:05.415Z,41.56
2022-08-16T12:08:05.561Z,41.95
2022-08-16T12:09:05.399Z,41.84
2022-08-16T12:10:05.627Z,41.41
2022-08-16T12:11:05.367Z,41.51
2022-08-16T12:12:05.360Z,41.37
2022-08-16T12:13:05.348Z,41.36
2022-08-16T12:14:05.338Z,41.43
2022-08-16T12:15:05.337Z,41.41
2022-08-16T12:16:05.497Z,42.49
2022-08-16T12:17:05.308Z,42.54
2022-08-16T12:18:05.303Z,41.76
2022-08-16T12:19:05.338Z,41.72
2022-08-16T12:20:05.278Z,41.70
2022-08-16T12:21:05.270Z,41.81
2022-08-16T12:22:18.677Z,41.86
2022-08-16T12:23:06.240Z,42.04
2022-08-16T12:24:05.235Z,42.11
2022-08-16T12:25:05.220Z,42.14
2022-08-16T12:26:10.200Z,41.77
2022-08-16T12:27:06.370Z,41.60
2022-08-16T12:28:05.199Z,41.72
2022-08-16T12:29:05.176Z,41.77
2022-08-16T12:30:05.172Z,41.62
2022-08-16T12:31:05.165Z,41.58
2022-08-16T12:32:37.979Z,42.55
2022-08-16T12:33:06.654Z,42.34
2022-08-16T12:34:05.126Z,42.07
2022-08-16T12:35:05.115Z,41.80
2022-08-16T12:36:05.113Z,41.62
2022-08-16T12:37:10.400Z,41.66
2022-08-16T12:38:38.321Z,41.63
2022-08-16T12:39:06.243Z,41.14
2022-08-16T12:40:05.156Z,41.26
2022-08-16T12:41:05.050Z,41.27
2022-08-16T12:42:05.039Z,41.08
2022-08-16T12:43:05.047Z,41.38
2022-08-16T12:44:05.023Z,40.93
2022-08-16T12:45:05.203Z,40.40
2022-08-16T12:46:05.049Z,40.53
2022-08-16T12:47:05.007Z,40.75
2022-08-16T12:48:29.732Z,40.84
2022-08-16T12:49:05.964Z,40.93
2022-08-16T12:50:04.953Z,40.75
2022-08-16T12:51:05.189Z,40.90
2022-08-16T12:52:05.934Z,40.75
2022-08-16T12:53:04.933Z,40.62
2022-08-16T12:54:04.943Z,40.92
2022-08-16T12:55:04.968Z,41.02
2022-08-16T12:56:04.897Z,41.40
2022-08-16T12:57:05.066Z,41.61
2022-08-16T12:58:05.870Z,41.44
2022-08-16T12:59:05.872Z,41.30